sensor_id;sensor_type;location;lat;lon;timestamp;P1;durP1;ratioP1;P2;durP2;ratioP2
24435;SDS011;12616;52.470;13.436;2022-12-01T00:01:28;93.43;;;30.83;;
24435;SDS011;12616;52.470;13.436;2022-12-01T00:03:55;87.07;;;33.30;;
24435;SDS011;12616;52.470;13.436;2022-12-01T00:06:23;81.00;;;32.90;;
24435;SDS011;12616;52.470;13.436;2022-12-01T00:08:50;80.65;;;34.40;;
24435;SDS011;12616;52.470;13.436;2022-12-01T00:11:35;76.97;;;32.40;;
24435;SDS011;12616;52.470;13.436;2022-12-01T00:14:03;75.32;;;31.27;;
24435;SDS011;12616;52.470;13.436;2022-12-01T00:16:33;76.43;;;30.60;;
24435;SDS011;12616;52.470;13.436;2022-12-01T00:19:04;76.80;;;29.60;;
24435;SDS011;12616;52.470;13.436;2022-12-01T00:21:31;73.72;;;32.55;;
24435;SDS011;12616;52.470;13.436;2022-12-01T00:23:58;76.63;;;30.35;;
24435;SDS011;12616;52.470;13.436;2022-12-01T00:26:25;66.95;;;28.35;;
24435;SDS011;12616;52.470;13.436;2022-12-01T00:28:53;83.07;;;31.25;;
24435;SDS011;12616;52.470;13.436;2022-12-01T00:31:22;76.32;;;30.85;;
24435;SDS011;12616;52.470;13.436;2022-12-01T00:33:51;73.70;;;30.98;;
24435;SDS011;12616;52.470;13.436;2022-12-01T00:36:18;64.22;;;29.73;;
24435;SDS011;12616;52.470;13.436;2022-12-01T00:42:01;71.60;;;28.63;;
24435;SDS011;12616;52.470;13.436;2022-12-01T00:44:28;68.63;;;30.13;;
24435;SDS011;12616;52.470;13.436;2022-12-01T00:47:17;67.10;;;29.90;;
24435;SDS011;12616;52.470;13.436;2022-12-01T00:53:32;74.75;;;26.48;;
24435;SDS011;12616;52.470;13.436;2022-12-01T00:56:18;60.10;;;24.73;;
24435;SDS011;12616;52.470;13.436;2022-12-01T01:01:49;68.78;;;27.42;;
24435;SDS011;12616;52.470;13.436;2022-12-01T01:04:18;53.92;;;25.08;;
24435;SDS011;12616;52.470;13.436;2022-12-01T01:09:58;60.85;;;30.02;;
24435;SDS011;12616;52.470;13.436;2022-12-01T01:12:51;72.63;;;29.23;;
24435;SDS011;12616;52.470;13.436;2022-12-01T01:16:04;59.35;;;26.00;;
24435;SDS011;12616;52.470;13.436;2022-12-01T01:22:24;70.10;;;28.48;;
24435;SDS011;12616;52.470;13.436;2022-12-01T01:25:06;74.07;;;31.23;;
24435;SDS011;12616;52.470;13.436;2022-12-01T01:27:42;58.70;;;27.75;;
24435;SDS011;12616;52.470;13.436;2022-12-01T01:30:21;82.10;;;30.02;;
24435;SDS011;12616;52.470;13.436;2022-12-01T01:32:55;67.88;;;30.45;;
24435;SDS011;12616;52.470;13.436;2022-12-01T01:35:28;66.80;;;26.45;;
24435;SDS011;12616;52.470;13.436;2022-12-01T01:55:17;67.63;;;27.00;;
24435;SDS011;12616;52.470;13.436;2022-12-01T01:58:11;68.75;;;28.35;;
24435;SDS011;12616;52.470;13.436;2022-12-01T02:00:50;68.63;;;29.83;;
24435;SDS011;12616;52.470;13.436;2022-12-01T02:04:04;59.25;;;28.15;;
24435;SDS011;12616;52.470;13.436;2022-12-01T02:34:52;68.00;;;26.60;;
24435;SDS011;12616;52.470;13.436;2022-12-01T02:38:57;70.63;;;27.73;;
24435;SDS011;12616;52.470;13.436;2022-12-01T02:45:26;65.93;;;28.33;;
24435;SDS011;12616;52.470;13.436;2022-12-01T02:54:37;64.13;;;27.00;;
24435;SDS011;12616;52.470;13.436;2022-12-01T02:57:59;63.45;;;27.80;;
24435;SDS011;12616;52.470;13.436;2022-12-01T03:14:34;60.38;;;27.10;;
24435;SDS011;12616;52.470;13.436;2022-12-01T03:18:17;60.15;;;26.52;;
24435;SDS011;12616;52.470;13.436;2022-12-01T03:31:59;70.07;;;28.70;;
24435;SDS011;12616;52.470;13.436;2022-12-01T03:35:13;79.53;;;28.45;;
24435;SDS011;12616;52.470;13.436;2022-12-01T03:39:42;62.47;;;27.10;;
24435;SDS011;12616;52.470;13.436;2022-12-01T03:41:54;76.90;;;30.75;;
24435;SDS011;12616;52.470;13.436;2022-12-01T03:45:14;73.20;;;26.13;;
24435;SDS011;12616;52.470;13.436;2022-12-01T04:07:44;62.17;;;30.10;;
24435;SDS011;12616;52.470;13.436;2022-12-01T04:10:28;79.75;;;28.95;;
24435;SDS011;12616;52.470;13.436;2022-12-01T04:13:15;74.50;;;29.98;;
24435;SDS011;12616;52.470;13.436;2022-12-01T04:15:53;77.53;;;31.42;;
24435;SDS011;12616;52.470;13.436;2022-12-01T04:18:37;76.97;;;33.70;;
24435;SDS011;12616;52.470;13.436;2022-12-01T04:21:14;65.57;;;29.67;;
24435;SDS011;12616;52.470;13.436;2022-12-01T04:23:41;79.53;;;32.13;;
24435;SDS011;12616;52.470;13.436;2022-12-01T04:26:26;87.75;;;31.52;;
24435;SDS011;12616;52.470;13.436;2022-12-01T04:28:54;74.00;;;34.63;;
24435;SDS011;12616;52.470;13.436;2022-12-01T04:31:21;84.65;;;32.95;;
24435;SDS011;12616;52.470;13.436;2022-12-01T04:33:48;83.25;;;32.50;;
24435;SDS011;12616;52.470;13.436;2022-12-01T04:36:15;77.47;;;31.20;;
24435;SDS011;12616;52.470;13.436;2022-12-01T04:38:42;90.72;;;36.38;;
24435;SDS011;12616;52.470;13.436;2022-12-01T04:41:09;73.95;;;29.60;;
24435;SDS011;12616;52.470;13.436;2022-12-01T04:43:36;75.60;;;32.35;;
24435;SDS011;12616;52.470;13.436;2022-12-01T04:46:05;78.50;;;29.88;;
24435;SDS011;12616;52.470;13.436;2022-12-01T04:48:33;84.75;;;33.00;;
24435;SDS011;12616;52.470;13.436;2022-12-01T04:51:00;83.90;;;35.70;;
24435;SDS011;12616;52.470;13.436;2022-12-01T04:53:28;90.13;;;36.10;;
24435;SDS011;12616;52.470;13.436;2022-12-01T04:55:55;77.95;;;32.75;;
24435;SDS011;12616;52.470;13.436;2022-12-01T04:58:22;86.38;;;33.08;;
24435;SDS011;12616;52.470;13.436;2022-12-01T05:00:50;84.68;;;33.80;;
24435;SDS011;12616;52.470;13.436;2022-12-01T05:03:18;78.50;;;32.53;;
24435;SDS011;12616;52.470;13.436;2022-12-01T05:05:46;83.25;;;31.55;;
24435;SDS011;12616;52.470;13.436;2022-12-01T05:08:14;79.63;;;31.90;;
24435;SDS011;12616;52.470;13.436;2022-12-01T05:10:41;82.18;;;34.13;;
24435;SDS011;12616;52.470;13.436;2022-12-01T05:13:08;82.05;;;35.00;;
24435;SDS011;12616;52.470;13.436;2022-12-01T05:15:35;80.47;;;29.85;;
24435;SDS011;12616;52.470;13.436;2022-12-01T05:18:02;81.55;;;33.13;;
24435;SDS011;12616;52.470;13.436;2022-12-01T05:20:32;91.65;;;35.17;;
24435;SDS011;12616;52.470;13.436;2022-12-01T05:23:17;84.25;;;36.17;;
24435;SDS011;12616;52.470;13.436;2022-12-01T05:25:44;74.90;;;32.90;;
24435;SDS011;12616;52.470;13.436;2022-12-01T05:28:11;80.18;;;31.48;;
24435;SDS011;12616;52.470;13.436;2022-12-01T05:30:38;85.80;;;33.58;;
24435;SDS011;12616;52.470;13.436;2022-12-01T05:33:05;80.43;;;33.42;;
24435;SDS011;12616;52.470;13.436;2022-12-01T05:35:34;95.72;;;36.05;;
24435;SDS011;12616;52.470;13.436;2022-12-01T05:38:01;78.10;;;32.85;;
24435;SDS011;12616;52.470;13.436;2022-12-01T05:40:28;87.35;;;35.22;;
24435;SDS011;12616;52.470;13.436;2022-12-01T05:42:55;87.85;;;34.70;;
24435;SDS011;12616;52.470;13.436;2022-12-01T05:45:22;81.97;;;32.63;;
24435;SDS011;12616;52.470;13.436;2022-12-01T05:47:52;72.93;;;31.75;;
24435;SDS011;12616;52.470;13.436;2022-12-01T05:50:20;84.13;;;32.33;;
24435;SDS011;12616;52.470;13.436;2022-12-01T05:52:49;88.25;;;33.40;;
24435;SDS011;12616;52.470;13.436;2022-12-01T05:55:17;81.28;;;32.63;;
24435;SDS011;12616;52.470;13.436;2022-12-01T05:57:44;83.50;;;32.00;;
24435;SDS011;12616;52.470;13.436;2022-12-01T06:00:12;73.88;;;32.25;;
24435;SDS011;12616;52.470;13.436;2022-12-01T06:02:41;69.97;;;30.80;;
24435;SDS011;12616;52.470;13.436;2022-12-01T06:05:10;77.57;;;34.22;;
24435;SDS011;12616;52.470;13.436;2022-12-01T06:08:07;73.50;;;32.15;;
24435;SDS011;12616;52.470;13.436;2022-12-01T06:10:48;85.05;;;34.45;;
24435;SDS011;12616;52.470;13.436;2022-12-01T06:13:28;77.53;;;33.78;;
24435;SDS011;12616;52.470;13.436;2022-12-01T06:16:05;77.15;;;33.05;;
24435;SDS011;12616;52.470;13.436;2022-12-01T06:18:46;93.95;;;37.72;;
24435;SDS011;12616;52.470;13.436;2022-12-01T06:21:23;80.05;;;37.15;;
24435;SDS011;12616;52.470;13.436;2022-12-01T06:24:02;79.03;;;31.90;;
24435;SDS011;12616;52.470;13.436;2022-12-01T06:26:29;78.32;;;34.10;;
24435;SDS011;12616;52.470;13.436;2022-12-01T06:29:00;88.28;;;34.92;;
24435;SDS011;12616;52.470;13.436;2022-12-01T06:31:27;77.85;;;35.22;;
24435;SDS011;12616;52.470;13.436;2022-12-01T06:33:55;85.80;;;33.95;;
24435;SDS011;12616;52.470;13.436;2022-12-01T06:36:22;70.72;;;31.42;;
24435;SDS011;12616;52.470;13.436;2022-12-01T06:38:49;81.15;;;34.53;;
24435;SDS011;12616;52.470;13.436;2022-12-01T06:41:18;76.13;;;31.67;;
24435;SDS011;12616;52.470;13.436;2022-12-01T06:43:46;76.35;;;33.92;;
24435;SDS011;12616;52.470;13.436;2022-12-01T06:46:16;85.00;;;35.90;;
24435;SDS011;12616;52.470;13.436;2022-12-01T06:48:49;70.55;;;33.17;;
24435;SDS011;12616;52.470;13.436;2022-12-01T06:51:26;68.68;;;31.92;;
24435;SDS011;12616;52.470;13.436;2022-12-01T06:53:54;78.57;;;34.40;;
24435;SDS011;12616;52.470;13.436;2022-12-01T06:56:25;62.05;;;29.55;;
24435;SDS011;12616;52.470;13.436;2022-12-01T06:59:04;97.32;;;37.42;;
24435;SDS011;12616;52.470;13.436;2022-12-01T07:01:42;79.93;;;32.72;;
24435;SDS011;12616;52.470;13.436;2022-12-01T07:07:55;83.95;;;35.15;;
24435;SDS011;12616;52.470;13.436;2022-12-01T07:10:24;76.78;;;33.05;;
24435;SDS011;12616;52.470;13.436;2022-12-01T07:15:47;76.80;;;32.75;;
24435;SDS011;12616;52.470;13.436;2022-12-01T07:18:18;89.72;;;37.03;;
24435;SDS011;12616;52.470;13.436;2022-12-01T07:20:48;93.35;;;35.35;;
24435;SDS011;12616;52.470;13.436;2022-12-01T07:23:38;94.93;;;40.55;;
24435;SDS011;12616;52.470;13.436;2022-12-01T07:26:06;96.75;;;40.72;;
24435;SDS011;12616;52.470;13.436;2022-12-01T07:32:01;102.20;;;41.45;;
24435;SDS011;12616;52.470;13.436;2022-12-01T07:34:37;111.47;;;38.95;;
24435;SDS011;12616;52.470;13.436;2022-12-01T07:37:11;91.93;;;41.50;;
24435;SDS011;12616;52.470;13.436;2022-12-01T07:39:47;92.90;;;38.05;;
24435;SDS011;12616;52.470;13.436;2022-12-01T07:42:18;112.15;;;43.35;;
24435;SDS011;12616;52.470;13.436;2022-12-01T07:44:51;100.75;;;41.92;;
24435;SDS011;12616;52.470;13.436;2022-12-01T07:47:20;100.10;;;40.08;;
24435;SDS011;12616;52.470;13.436;2022-12-01T07:49:46;108.82;;;41.83;;
24435;SDS011;12616;52.470;13.436;2022-12-01T07:52:13;110.72;;;40.65;;
24435;SDS011;12616;52.470;13.436;2022-12-01T07:54:40;128.35;;;42.28;;
24435;SDS011;12616;52.470;13.436;2022-12-01T07:57:07;121.07;;;44.38;;
24435;SDS011;12616;52.470;13.436;2022-12-01T07:59:34;118.90;;;41.35;;
24435;SDS011;12616;52.470;13.436;2022-12-01T08:02:02;124.40;;;44.92;;
24435;SDS011;12616;52.470;13.436;2022-12-01T08:04:30;115.03;;;43.80;;
24435;SDS011;12616;52.470;13.436;2022-12-01T08:06:57;122.57;;;46.63;;
24435;SDS011;12616;52.470;13.436;2022-12-01T08:09:24;120.10;;;42.95;;
24435;SDS011;12616;52.470;13.436;2022-12-01T08:11:51;112.43;;;42.97;;
24435;SDS011;12616;52.470;13.436;2022-12-01T08:14:18;112.03;;;42.08;;
24435;SDS011;12616;52.470;13.436;2022-12-01T08:16:47;106.25;;;38.85;;
24435;SDS011;12616;52.470;13.436;2022-12-01T08:19:14;122.80;;;46.60;;
24435;SDS011;12616;52.470;13.436;2022-12-01T08:21:44;117.55;;;43.63;;
24435;SDS011;12616;52.470;13.436;2022-12-01T08:24:14;132.68;;;47.83;;
24435;SDS011;12616;52.470;13.436;2022-12-01T08:26:44;118.85;;;42.00;;
24435;SDS011;12616;52.470;13.436;2022-12-01T08:29:13;108.88;;;41.20;;
24435;SDS011;12616;52.470;13.436;2022-12-01T08:31:41;124.35;;;46.80;;
24435;SDS011;12616;52.470;13.436;2022-12-01T08:34:08;128.65;;;46.20;;
24435;SDS011;12616;52.470;13.436;2022-12-01T08:36:35;116.95;;;44.33;;
24435;SDS011;12616;52.470;13.436;2022-12-01T08:39:06;130.50;;;47.38;;
24435;SDS011;12616;52.470;13.436;2022-12-01T08:41:33;116.57;;;43.47;;
24435;SDS011;12616;52.470;13.436;2022-12-01T08:44:00;116.40;;;44.47;;
24435;SDS011;12616;52.470;13.436;2022-12-01T08:46:31;127.60;;;49.03;;
24435;SDS011;12616;52.470;13.436;2022-12-01T08:48:59;129.88;;;47.17;;
24435;SDS011;12616;52.470;13.436;2022-12-01T08:51:26;119.13;;;46.85;;
24435;SDS011;12616;52.470;13.436;2022-12-01T08:53:53;128.73;;;45.42;;
24435;SDS011;12616;52.470;13.436;2022-12-01T08:56:23;116.85;;;43.53;;
24435;SDS011;12616;52.470;13.436;2022-12-01T08:58:52;115.05;;;44.20;;
24435;SDS011;12616;52.470;13.436;2022-12-01T09:01:19;121.60;;;45.90;;
24435;SDS011;12616;52.470;13.436;2022-12-01T09:03:47;127.88;;;44.75;;
24435;SDS011;12616;52.470;13.436;2022-12-01T09:06:29;106.75;;;43.42;;
24435;SDS011;12616;52.470;13.436;2022-12-01T09:08:57;90.15;;;41.35;;
24435;SDS011;12616;52.470;13.436;2022-12-01T09:11:26;113.00;;;42.20;;
24435;SDS011;12616;52.470;13.436;2022-12-01T09:14:04;113.50;;;43.85;;
24435;SDS011;12616;52.470;13.436;2022-12-01T09:16:31;97.18;;;41.70;;
24435;SDS011;12616;52.470;13.436;2022-12-01T09:19:00;111.05;;;40.45;;
24435;SDS011;12616;52.470;13.436;2022-12-01T09:21:28;122.55;;;42.95;;
24435;SDS011;12616;52.470;13.436;2022-12-01T09:23:55;99.55;;;39.28;;
24435;SDS011;12616;52.470;13.436;2022-12-01T09:26:27;107.60;;;43.13;;
24435;SDS011;12616;52.470;13.436;2022-12-01T09:28:55;121.63;;;44.67;;
24435;SDS011;12616;52.470;13.436;2022-12-01T09:31:24;103.90;;;42.20;;
24435;SDS011;12616;52.470;13.436;2022-12-01T09:33:55;126.43;;;44.40;;
24435;SDS011;12616;52.470;13.436;2022-12-01T09:36:22;119.30;;;44.55;;
24435;SDS011;12616;52.470;13.436;2022-12-01T09:38:50;118.38;;;47.65;;
24435;SDS011;12616;52.470;13.436;2022-12-01T09:41:18;117.22;;;42.75;;
24435;SDS011;12616;52.470;13.436;2022-12-01T09:43:50;110.18;;;44.20;;
24435;SDS011;12616;52.470;13.436;2022-12-01T09:46:23;99.60;;;42.17;;
24435;SDS011;12616;52.470;13.436;2022-12-01T09:48:53;108.55;;;42.92;;
24435;SDS011;12616;52.470;13.436;2022-12-01T09:51:22;111.88;;;40.92;;
24435;SDS011;12616;52.470;13.436;2022-12-01T09:53:51;120.25;;;46.15;;
24435;SDS011;12616;52.470;13.436;2022-12-01T09:56:23;114.43;;;45.83;;
24435;SDS011;12616;52.470;13.436;2022-12-01T09:58:57;105.50;;;41.17;;
24435;SDS011;12616;52.470;13.436;2022-12-01T10:01:30;99.82;;;41.03;;
24435;SDS011;12616;52.470;13.436;2022-12-01T10:04:01;98.55;;;42.17;;
24435;SDS011;12616;52.470;13.436;2022-12-01T10:06:34;108.13;;;42.63;;
24435;SDS011;12616;52.470;13.436;2022-12-01T10:09:14;94.47;;;40.25;;
24435;SDS011;12616;52.470;13.436;2022-12-01T10:11:46;108.35;;;42.33;;
24435;SDS011;12616;52.470;13.436;2022-12-01T10:14:20;104.55;;;42.42;;
24435;SDS011;12616;52.470;13.436;2022-12-01T10:16:50;116.57;;;42.33;;
24435;SDS011;12616;52.470;13.436;2022-12-01T10:19:26;108.28;;;41.28;;
24435;SDS011;12616;52.470;13.436;2022-12-01T10:24:57;118.30;;;42.50;;
24435;SDS011;12616;52.470;13.436;2022-12-01T10:27:33;106.05;;;41.20;;
24435;SDS011;12616;52.470;13.436;2022-12-01T10:30:13;103.20;;;42.70;;
24435;SDS011;12616;52.470;13.436;2022-12-01T10:32:44;89.97;;;41.00;;
24435;SDS011;12616;52.470;13.436;2022-12-01T10:35:20;105.25;;;40.80;;
24435;SDS011;12616;52.470;13.436;2022-12-01T10:37:51;92.47;;;40.10;;
24435;SDS011;12616;52.470;13.436;2022-12-01T10:40:21;109.07;;;42.83;;
24435;SDS011;12616;52.470;13.436;2022-12-01T10:42:49;120.00;;;45.38;;
24435;SDS011;12616;52.470;13.436;2022-12-01T10:45:19;90.32;;;41.47;;
24435;SDS011;12616;52.470;13.436;2022-12-01T10:48:08;101.93;;;43.30;;
24435;SDS011;12616;52.470;13.436;2022-12-01T10:50:39;78.45;;;38.63;;
24435;SDS011;12616;52.470;13.436;2022-12-01T10:53:08;91.80;;;40.83;;
24435;SDS011;12616;52.470;13.436;2022-12-01T10:55:57;89.75;;;41.80;;
24435;SDS011;12616;52.470;13.436;2022-12-01T10:58:27;89.90;;;39.20;;
24435;SDS011;12616;52.470;13.436;2022-12-01T11:00:59;91.13;;;40.83;;
24435;SDS011;12616;52.470;13.436;2022-12-01T11:03:29;86.57;;;39.25;;
24435;SDS011;12616;52.470;13.436;2022-12-01T11:05:58;90.78;;;40.00;;
24435;SDS011;12616;52.470;13.436;2022-12-01T11:08:30;81.82;;;35.67;;
24435;SDS011;12616;52.470;13.436;2022-12-01T11:11:20;80.43;;;38.35;;
24435;SDS011;12616;52.470;13.436;2022-12-01T11:14:04;77.30;;;35.75;;
24435;SDS011;12616;52.470;13.436;2022-12-01T11:16:48;92.38;;;37.22;;
24435;SDS011;12616;52.470;13.436;2022-12-01T11:19:27;85.60;;;36.40;;
24435;SDS011;12616;52.470;13.436;2022-12-01T11:22:20;80.93;;;36.38;;
24435;SDS011;12616;52.470;13.436;2022-12-01T11:25:28;78.35;;;35.15;;
24435;SDS011;12616;52.470;13.436;2022-12-01T11:28:17;75.20;;;34.85;;
24435;SDS011;12616;52.470;13.436;2022-12-01T11:41:20;72.97;;;34.53;;
24435;SDS011;12616;52.470;13.436;2022-12-01T11:44:17;76.53;;;36.03;;
24435;SDS011;12616;52.470;13.436;2022-12-01T11:51:01;72.50;;;33.50;;
24435;SDS011;12616;52.470;13.436;2022-12-01T11:56:40;77.43;;;35.60;;
24435;SDS011;12616;52.470;13.436;2022-12-01T11:59:23;70.95;;;31.08;;
24435;SDS011;12616;52.470;13.436;2022-12-01T12:02:18;75.25;;;33.83;;
24435;SDS011;12616;52.470;13.436;2022-12-01T12:08:41;60.20;;;30.13;;
24435;SDS011;12616;52.470;13.436;2022-12-01T12:11:26;73.55;;;32.58;;
24435;SDS011;12616;52.470;13.436;2022-12-01T12:14:12;70.82;;;33.92;;
24435;SDS011;12616;52.470;13.436;2022-12-01T12:17:16;64.93;;;34.40;;
24435;SDS011;12616;52.470;13.436;2022-12-01T12:19:59;80.00;;;33.90;;
24435;SDS011;12616;52.470;13.436;2022-12-01T12:22:47;75.43;;;34.05;;
24435;SDS011;12616;52.470;13.436;2022-12-01T12:25:35;79.40;;;34.78;;
24435;SDS011;12616;52.470;13.436;2022-12-01T12:28:16;85.45;;;34.28;;
24435;SDS011;12616;52.470;13.436;2022-12-01T12:30:57;74.90;;;33.78;;
24435;SDS011;12616;52.470;13.436;2022-12-01T12:33:50;64.50;;;31.52;;
24435;SDS011;12616;52.470;13.436;2022-12-01T12:36:35;73.63;;;32.05;;
24435;SDS011;12616;52.470;13.436;2022-12-01T12:39:13;64.47;;;30.35;;
24435;SDS011;12616;52.470;13.436;2022-12-01T12:41:54;64.55;;;34.17;;
24435;SDS011;12616;52.470;13.436;2022-12-01T12:47:45;58.47;;;32.17;;
24435;SDS011;12616;52.470;13.436;2022-12-01T12:50:56;63.72;;;32.33;;
24435;SDS011;12616;52.470;13.436;2022-12-01T12:53:53;58.83;;;28.60;;
24435;SDS011;12616;52.470;13.436;2022-12-01T13:00:13;60.03;;;27.80;;
24435;SDS011;12616;52.470;13.436;2022-12-01T13:02:43;65.93;;;32.00;;
24435;SDS011;12616;52.470;13.436;2022-12-01T13:05:19;69.90;;;31.55;;
24435;SDS011;12616;52.470;13.436;2022-12-01T13:08:20;60.67;;;29.67;;
24435;SDS011;12616;52.470;13.436;2022-12-01T13:11:25;58.92;;;26.73;;
24435;SDS011;12616;52.470;13.436;2022-12-01T13:14:22;58.72;;;29.27;;
24435;SDS011;12616;52.470;13.436;2022-12-01T13:20:41;66.22;;;30.38;;
24435;SDS011;12616;52.470;13.436;2022-12-01T13:23:41;56.80;;;29.88;;
24435;SDS011;12616;52.470;13.436;2022-12-01T13:26:42;57.63;;;32.22;;
24435;SDS011;12616;52.470;13.436;2022-12-01T13:29:57;49.80;;;27.63;;
24435;SDS011;12616;52.470;13.436;2022-12-01T13:36:17;64.97;;;30.77;;
24435;SDS011;12616;52.470;13.436;2022-12-01T13:38:56;59.15;;;29.52;;
24435;SDS011;12616;52.470;13.436;2022-12-01T13:55:56;53.80;;;28.20;;
24435;SDS011;12616;52.470;13.436;2022-12-01T13:59:07;63.88;;;28.85;;
24435;SDS011;12616;52.470;13.436;2022-12-01T14:02:21;60.70;;;28.65;;
24435;SDS011;12616;52.470;13.436;2022-12-01T14:04:50;51.70;;;24.95;;
24435;SDS011;12616;52.470;13.436;2022-12-01T14:10:29;55.95;;;25.15;;
24435;SDS011;12616;52.470;13.436;2022-12-01T14:13:03;61.25;;;28.13;;
24435;SDS011;12616;52.470;13.436;2022-12-01T14:15:58;58.20;;;30.10;;
24435;SDS011;12616;52.470;13.436;2022-12-01T14:19:11;61.40;;;30.80;;
24435;SDS011;12616;52.470;13.436;2022-12-01T14:22:40;55.47;;;29.27;;
24435;SDS011;12616;52.470;13.436;2022-12-01T14:25:38;60.38;;;30.75;;
24435;SDS011;12616;52.470;13.436;2022-12-01T14:28:19;48.95;;;26.55;;
24435;SDS011;12616;52.470;13.436;2022-12-01T14:31:18;63.05;;;29.17;;
24435;SDS011;12616;52.470;13.436;2022-12-01T14:37:27;52.63;;;26.80;;
24435;SDS011;12616;52.470;13.436;2022-12-01T14:44:21;54.05;;;28.27;;
24435;SDS011;12616;52.470;13.436;2022-12-01T14:47:37;53.75;;;26.67;;
24435;SDS011;12616;52.470;13.436;2022-12-01T14:54:14;44.17;;;25.08;;
24435;SDS011;12616;52.470;13.436;2022-12-01T14:57:25;53.40;;;27.70;;
24435;SDS011;12616;52.470;13.436;2022-12-01T15:10:02;54.53;;;26.60;;
24435;SDS011;12616;52.470;13.436;2022-12-01T15:13:10;58.95;;;27.08;;
24435;SDS011;12616;52.470;13.436;2022-12-01T15:19:44;51.58;;;26.25;;
24435;SDS011;12616;52.470;13.436;2022-12-01T15:22:18;55.45;;;27.15;;
24435;SDS011;12616;52.470;13.436;2022-12-01T15:25:04;56.55;;;28.65;;
24435;SDS011;12616;52.470;13.436;2022-12-01T15:28:21;56.80;;;28.38;;
24435;SDS011;12616;52.470;13.436;2022-12-01T15:31:11;67.53;;;32.83;;
24435;SDS011;12616;52.470;13.436;2022-12-01T15:34:00;58.83;;;27.45;;
24435;SDS011;12616;52.470;13.436;2022-12-01T15:36:55;54.30;;;28.50;;
24435;SDS011;12616;52.470;13.436;2022-12-01T15:58:13;54.33;;;27.88;;
24435;SDS011;12616;52.470;13.436;2022-12-01T16:01:08;58.45;;;29.80;;
24435;SDS011;12616;52.470;13.436;2022-12-01T16:04:21;58.55;;;30.77;;
24435;SDS011;12616;52.470;13.436;2022-12-01T16:10:24;60.90;;;30.23;;
24435;SDS011;12616;52.470;13.436;2022-12-01T16:13:39;59.60;;;29.00;;
24435;SDS011;12616;52.470;13.436;2022-12-01T16:19:50;52.28;;;26.98;;
24435;SDS011;12616;52.470;13.436;2022-12-01T16:22:53;84.05;;;26.35;;
24435;SDS011;12616;52.470;13.436;2022-12-01T16:25:31;55.38;;;28.90;;
24435;SDS011;12616;52.470;13.436;2022-12-01T16:28:21;67.63;;;30.38;;
24435;SDS011;12616;52.470;13.436;2022-12-01T16:31:26;64.45;;;29.73;;
24435;SDS011;12616;52.470;13.436;2022-12-01T16:34:02;56.75;;;31.23;;
24435;SDS011;12616;52.470;13.436;2022-12-01T16:36:38;64.80;;;30.02;;
24435;SDS011;12616;52.470;13.436;2022-12-01T16:39:12;61.72;;;30.35;;
24435;SDS011;12616;52.470;13.436;2022-12-01T16:42:05;58.15;;;27.65;;
24435;SDS011;12616;52.470;13.436;2022-12-01T16:44:35;68.97;;;31.15;;
24435;SDS011;12616;52.470;13.436;2022-12-01T16:47:22;67.40;;;29.63;;
24435;SDS011;12616;52.470;13.436;2022-12-01T16:50:27;69.32;;;31.45;;
24435;SDS011;12616;52.470;13.436;2022-12-01T16:52:59;64.55;;;32.17;;
24435;SDS011;12616;52.470;13.436;2022-12-01T17:42:22;59.90;;;31.20;;
24435;SDS011;12616;52.470;13.436;2022-12-01T17:52:12;69.05;;;29.73;;
24435;SDS011;12616;52.470;13.436;2022-12-01T17:55:17;63.60;;;31.00;;
24435;SDS011;12616;52.470;13.436;2022-12-01T17:58:03;61.45;;;30.88;;
24435;SDS011;12616;52.470;13.436;2022-12-01T18:01:02;64.55;;;30.15;;
24435;SDS011;12616;52.470;13.436;2022-12-01T18:07:30;62.65;;;28.85;;
24435;SDS011;12616;52.470;13.436;2022-12-01T18:10:26;73.47;;;30.85;;
24435;SDS011;12616;52.470;13.436;2022-12-01T18:17:32;65.93;;;31.85;;
24435;SDS011;12616;52.470;13.436;2022-12-01T18:20:12;59.47;;;31.25;;
24435;SDS011;12616;52.470;13.436;2022-12-01T18:27:23;61.80;;;29.23;;
24435;SDS011;12616;52.470;13.436;2022-12-01T18:33:25;62.67;;;30.10;;
24435;SDS011;12616;52.470;13.436;2022-12-01T18:46:10;58.15;;;30.27;;
24435;SDS011;12616;52.470;13.436;2022-12-01T18:49:06;61.55;;;30.30;;
24435;SDS011;12616;52.470;13.436;2022-12-01T18:51:49;68.35;;;28.20;;
24435;SDS011;12616;52.470;13.436;2022-12-01T18:54:40;59.97;;;30.17;;
24435;SDS011;12616;52.470;13.436;2022-12-01T19:52:17;51.47;;;29.02;;
24435;SDS011;12616;52.470;13.436;2022-12-01T20:19:30;55.35;;;29.65;;
24435;SDS011;12616;52.470;13.436;2022-12-01T20:26:03;55.08;;;28.25;;
24435;SDS011;12616;52.470;13.436;2022-12-01T20:29:25;61.17;;;32.72;;
24435;SDS011;12616;52.470;13.436;2022-12-01T20:32:39;62.78;;;33.00;;
24435;SDS011;12616;52.470;13.436;2022-12-01T20:39:05;57.65;;;27.58;;
24435;SDS011;12616;52.470;13.436;2022-12-01T20:43:12;47.42;;;25.48;;
24435;SDS011;12616;52.470;13.436;2022-12-01T20:45:29;58.97;;;31.40;;
24435;SDS011;12616;52.470;13.436;2022-12-01T20:58:10;48.78;;;28.02;;
24435;SDS011;12616;52.470;13.436;2022-12-01T21:07:43;50.75;;;26.65;;
24435;SDS011;12616;52.470;13.436;2022-12-01T21:11:18;48.83;;;26.48;;
24435;SDS011;12616;52.470;13.436;2022-12-01T21:19:52;46.08;;;25.90;;
24435;SDS011;12616;52.470;13.436;2022-12-01T21:22:25;56.88;;;29.73;;
24435;SDS011;12616;52.470;13.436;2022-12-01T21:24:54;53.92;;;28.73;;
24435;SDS011;12616;52.470;13.436;2022-12-01T21:27:31;56.50;;;31.17;;
24435;SDS011;12616;52.470;13.436;2022-12-01T21:30:00;57.28;;;29.08;;
24435;SDS011;12616;52.470;13.436;2022-12-01T21:32:31;46.17;;;28.92;;
24435;SDS011;12616;52.470;13.436;2022-12-01T21:35:07;51.70;;;26.92;;
24435;SDS011;12616;52.470;13.436;2022-12-01T21:37:39;50.88;;;26.00;;
24435;SDS011;12616;52.470;13.436;2022-12-01T21:40:12;54.97;;;28.48;;
24435;SDS011;12616;52.470;13.436;2022-12-01T21:42:41;51.38;;;27.08;;
24435;SDS011;12616;52.470;13.436;2022-12-01T21:45:12;55.45;;;28.55;;
24435;SDS011;12616;52.470;13.436;2022-12-01T21:47:47;47.55;;;26.20;;
24435;SDS011;12616;52.470;13.436;2022-12-01T21:50:18;54.80;;;28.33;;
24435;SDS011;12616;52.470;13.436;2022-12-01T21:52:48;50.90;;;27.33;;
24435;SDS011;12616;52.470;13.436;2022-12-01T21:55:30;53.13;;;26.92;;
24435;SDS011;12616;52.470;13.436;2022-12-01T21:58:00;50.72;;;27.65;;
24435;SDS011;12616;52.470;13.436;2022-12-01T22:00:28;48.63;;;26.67;;
24435;SDS011;12616;52.470;13.436;2022-12-01T22:03:01;48.75;;;26.60;;
24435;SDS011;12616;52.470;13.436;2022-12-01T22:05:45;53.33;;;26.83;;
24435;SDS011;12616;52.470;13.436;2022-12-01T22:11:01;47.95;;;26.17;;
24435;SDS011;12616;52.470;13.436;2022-12-01T22:13:51;43.75;;;25.27;;
24435;SDS011;12616;52.470;13.436;2022-12-01T22:16:26;60.20;;;28.52;;
24435;SDS011;12616;52.470;13.436;2022-12-01T22:19:16;50.78;;;27.73;;
24435;SDS011;12616;52.470;13.436;2022-12-01T22:24:55;47.38;;;25.60;;